شبیه ساز

آموزش FMS A300 simcheck

آموزش مقدماتی اف ام اس ایرباس سیصد سری دویست را هم  اکنون میتوانید دانلود کنید در این آموزش شما شاید طرح ریزی پرواز تهران به شیراز خواهید بود

آموزش افزایش فریم ریت

با سلام خدمت دوستان عزیز قصد داریم راه حلی را ارایه بدیم که از شر فریم پایین افزودنی ها راحت شوید 

4

حل مشکل FMC سیمچک A300 simcheck

بسیاری از دوستان پیام داده بودند و از مشکلشان با FMC سیمچک ما را با خبر کردند آنچه ما ازپیام ها دریافتیم این بود که دوستان در ویندوز 10 مشکلشان...

آموزش خواندن متار:

گزارشات هواشناسی شاملMETAR: هوای حاضر فرودگاهTAFO: پیش بینی برای شهر هاAREA FOR CAST : پیش بینی منطقه ایییک نمونه از METAR که مربوط به فرودگاه مهرآباد استOIII 122255Z 00000KT 2000 -SN BR FEW030CB FEW035 OVC09 M06/M06 Q1022 A3018 886.2خوب خواندن این گزارش به صورت زیر است

آموزش جامع و فارسی MD 82

این آموزش شامل :1-آموزش راه اندازی سیستم های هواپیما2-آموزش کامل FMC3-آموزش تیک اف4-آموزش تیک اف5-آموزش کروزو لندینگاین آموزش توسط استاد محمود رضا طهرانچی اصل ساخته شده است

5

آموزش ثبت نام در سایت AVSIM

طبق درخواست شما دنبال کنندگان عزیز آموزش ثبت نام در سایت avsim را قرار میدهیم : ابتدا وارد سایت https://www.avsim.com شوید سپس وارد قسمت sgin up  شوید : بعد نام و ایمیل...

8

کامل ترین آموزش فارسی A320

آموزش فارسی هواپیمای A320 Cold and Dark توسط استاد تایماز سپاهی مدت زمان ویدیو : 1 ساعت و 45 دقیقه       جهت دانلود هواپیما به لینک زیر بروید...

7